sensor_id;sensor_type;location;lat;lon;timestamp;temperature;humidity
38265;DHT22;24062;47.480;8.768;2022-12-08T00:01:24;21.50;53.10
38265;DHT22;24062;47.480;8.768;2022-12-08T00:03:51;21.50;53.10
38265;DHT22;24062;47.480;8.768;2022-12-08T00:06:24;21.40;53.10
38265;DHT22;24062;47.480;8.768;2022-12-08T00:09:14;21.40;53.10
38265;DHT22;24062;47.480;8.768;2022-12-08T00:11:49;21.40;53.10
38265;DHT22;24062;47.480;8.768;2022-12-08T00:14:16;21.40;53.20
38265;DHT22;24062;47.480;8.768;2022-12-08T00:16:43;21.40;53.20
38265;DHT22;24062;47.480;8.768;2022-12-08T00:19:10;21.30;53.20
38265;DHT22;24062;47.480;8.768;2022-12-08T00:21:37;21.30;53.20
38265;DHT22;24062;47.480;8.768;2022-12-08T00:24:05;21.30;53.80
38265;DHT22;24062;47.480;8.768;2022-12-08T00:26:32;21.20;53.10
38265;DHT22;24062;47.480;8.768;2022-12-08T00:29:00;21.20;53.20
38265;DHT22;24062;47.480;8.768;2022-12-08T00:31:27;21.20;53.20
38265;DHT22;24062;47.480;8.768;2022-12-08T00:33:54;21.20;53.30
38265;DHT22;24062;47.480;8.768;2022-12-08T00:36:21;21.20;53.20
38265;DHT22;24062;47.480;8.768;2022-12-08T00:38:48;21.20;53.30
38265;DHT22;24062;47.480;8.768;2022-12-08T00:41:17;21.10;53.30
38265;DHT22;24062;47.480;8.768;2022-12-08T00:44:06;21.10;53.30
38265;DHT22;24062;47.480;8.768;2022-12-08T00:46:34;21.10;53.30
38265;DHT22;24062;47.480;8.768;2022-12-08T00:49:01;21.10;53.30
38265;DHT22;24062;47.480;8.768;2022-12-08T00:51:28;21.10;53.30
38265;DHT22;24062;47.480;8.768;2022-12-08T00:53:55;21.00;53.40
38265;DHT22;24062;47.480;8.768;2022-12-08T00:56:23;21.10;53.40
38265;DHT22;24062;47.480;8.768;2022-12-08T00:58:51;21.00;53.30
38265;DHT22;24062;47.480;8.768;2022-12-08T01:01:19;21.00;53.30
38265;DHT22;24062;47.480;8.768;2022-12-08T01:03:46;21.00;53.30
38265;DHT22;24062;47.480;8.768;2022-12-08T01:06:13;20.90;53.20
38265;DHT22;24062;47.480;8.768;2022-12-08T01:08:41;20.90;53.20
38265;DHT22;24062;47.480;8.768;2022-12-08T01:11:10;20.90;53.20
38265;DHT22;24062;47.480;8.768;2022-12-08T01:13:37;20.90;53.30
38265;DHT22;24062;47.480;8.768;2022-12-08T01:16:05;20.80;53.20
38265;DHT22;24062;47.480;8.768;2022-12-08T01:18:34;20.80;53.30
38265;DHT22;24062;47.480;8.768;2022-12-08T01:21:02;20.80;53.20
38265;DHT22;24062;47.480;8.768;2022-12-08T01:23:29;20.80;53.20
38265;DHT22;24062;47.480;8.768;2022-12-08T01:26:01;20.80;53.30
38265;DHT22;24062;47.480;8.768;2022-12-08T01:28:28;20.70;53.20
38265;DHT22;24062;47.480;8.768;2022-12-08T01:30:56;20.70;53.20
38265;DHT22;24062;47.480;8.768;2022-12-08T01:33:23;20.70;53.20
38265;DHT22;24062;47.480;8.768;2022-12-08T01:35:52;20.70;53.30
38265;DHT22;24062;47.480;8.768;2022-12-08T01:38:20;20.70;53.30
38265;DHT22;24062;47.480;8.768;2022-12-08T01:40:48;20.60;53.20
38265;DHT22;24062;47.480;8.768;2022-12-08T01:43:16;20.60;53.20
38265;DHT22;24062;47.480;8.768;2022-12-08T01:45:44;20.60;53.30
38265;DHT22;24062;47.480;8.768;2022-12-08T01:48:15;20.60;53.30
38265;DHT22;24062;47.480;8.768;2022-12-08T01:50:44;20.60;53.50
38265;DHT22;24062;47.480;8.768;2022-12-08T01:53:14;20.50;53.20
38265;DHT22;24062;47.480;8.768;2022-12-08T01:55:46;20.50;53.20
38265;DHT22;24062;47.480;8.768;2022-12-08T01:58:17;20.50;53.20
38265;DHT22;24062;47.480;8.768;2022-12-08T02:00:45;20.50;53.20
38265;DHT22;24062;47.480;8.768;2022-12-08T02:03:16;20.40;53.20
38265;DHT22;24062;47.480;8.768;2022-12-08T02:05:45;20.50;53.30
38265;DHT22;24062;47.480;8.768;2022-12-08T02:08:14;20.40;53.20
38265;DHT22;24062;47.480;8.768;2022-12-08T02:10:42;20.40;53.30
38265;DHT22;24062;47.480;8.768;2022-12-08T02:13:12;20.40;53.30
38265;DHT22;24062;47.480;8.768;2022-12-08T02:15:48;20.30;53.20
38265;DHT22;24062;47.480;8.768;2022-12-08T02:18:31;20.30;53.20
38265;DHT22;24062;47.480;8.768;2022-12-08T02:21:03;20.30;53.20
38265;DHT22;24062;47.480;8.768;2022-12-08T02:23:40;20.30;53.20
38265;DHT22;24062;47.480;8.768;2022-12-08T02:26:47;20.20;53.10
38265;DHT22;24062;47.480;8.768;2022-12-08T02:29:51;20.20;53.10
38265;DHT22;24062;47.480;8.768;2022-12-08T02:35:38;20.20;53.10
38265;DHT22;24062;47.480;8.768;2022-12-08T02:38:16;20.30;53.30
38265;DHT22;24062;47.480;8.768;2022-12-08T02:40:52;20.20;53.20
38265;DHT22;24062;47.480;8.768;2022-12-08T02:43:31;20.20;53.20
38265;DHT22;24062;47.480;8.768;2022-12-08T02:46:02;20.20;53.20
38265;DHT22;24062;47.480;8.768;2022-12-08T02:48:32;20.40;53.20
38265;DHT22;24062;47.480;8.768;2022-12-08T02:51:01;20.40;53.00
38265;DHT22;24062;47.480;8.768;2022-12-08T02:53:29;20.60;52.90
38265;DHT22;24062;47.480;8.768;2022-12-08T02:56:03;20.70;52.80
38265;DHT22;24062;47.480;8.768;2022-12-08T02:58:52;20.80;52.70
38265;DHT22;24062;47.480;8.768;2022-12-08T03:01:35;20.90;52.40
38265;DHT22;24062;47.480;8.768;2022-12-08T03:04:08;21.20;52.40
38265;DHT22;24062;47.480;8.768;2022-12-08T03:06:47;21.40;52.20
38265;DHT22;24062;47.480;8.768;2022-12-08T03:09:18;21.60;52.00
38265;DHT22;24062;47.480;8.768;2022-12-08T03:11:51;21.90;51.90
38265;DHT22;24062;47.480;8.768;2022-12-08T03:14:20;22.10;51.70
38265;DHT22;24062;47.480;8.768;2022-12-08T03:16:52;22.20;51.30
38265;DHT22;24062;47.480;8.768;2022-12-08T03:19:24;22.30;51.10
38265;DHT22;24062;47.480;8.768;2022-12-08T03:21:56;22.40;50.90
38265;DHT22;24062;47.480;8.768;2022-12-08T03:24:28;22.40;51.00
38265;DHT22;24062;47.480;8.768;2022-12-08T03:26:58;22.40;50.80
38265;DHT22;24062;47.480;8.768;2022-12-08T03:29:28;22.40;50.70
38265;DHT22;24062;47.480;8.768;2022-12-08T03:31:58;22.50;50.80
38265;DHT22;24062;47.480;8.768;2022-12-08T03:34:28;22.40;50.70
38265;DHT22;24062;47.480;8.768;2022-12-08T03:36:59;22.40;50.70
38265;DHT22;24062;47.480;8.768;2022-12-08T03:39:26;22.50;50.70
38265;DHT22;24062;47.480;8.768;2022-12-08T03:41:53;22.50;50.60
38265;DHT22;24062;47.480;8.768;2022-12-08T03:44:20;22.50;50.60
38265;DHT22;24062;47.480;8.768;2022-12-08T03:46:46;22.50;50.50
38265;DHT22;24062;47.480;8.768;2022-12-08T03:49:13;22.50;50.50
38265;DHT22;24062;47.480;8.768;2022-12-08T03:51:40;22.60;50.50
38265;DHT22;24062;47.480;8.768;2022-12-08T03:54:09;22.60;50.40
38265;DHT22;24062;47.480;8.768;2022-12-08T03:56:37;22.70;50.30
38265;DHT22;24062;47.480;8.768;2022-12-08T03:59:05;22.70;50.30
38265;DHT22;24062;47.480;8.768;2022-12-08T04:01:33;22.80;50.20
38265;DHT22;24062;47.480;8.768;2022-12-08T04:04:00;22.80;50.20
38265;DHT22;24062;47.480;8.768;2022-12-08T04:06:27;22.90;50.20
38265;DHT22;24062;47.480;8.768;2022-12-08T04:08:54;22.80;50.10
38265;DHT22;24062;47.480;8.768;2022-12-08T04:11:22;22.90;50.20
38265;DHT22;24062;47.480;8.768;2022-12-08T04:13:49;22.90;50.10
38265;DHT22;24062;47.480;8.768;2022-12-08T04:16:18;22.90;50.10
38265;DHT22;24062;47.480;8.768;2022-12-08T04:18:46;22.90;50.10
38265;DHT22;24062;47.480;8.768;2022-12-08T04:21:13;22.90;50.00
38265;DHT22;24062;47.480;8.768;2022-12-08T04:23:40;22.90;49.90
38265;DHT22;24062;47.480;8.768;2022-12-08T04:26:07;23.00;49.90
38265;DHT22;24062;47.480;8.768;2022-12-08T04:28:36;23.00;49.80
38265;DHT22;24062;47.480;8.768;2022-12-08T04:31:03;23.10;49.80
38265;DHT22;24062;47.480;8.768;2022-12-08T04:33:30;23.10;50.40
38265;DHT22;24062;47.480;8.768;2022-12-08T04:35:57;23.10;49.80
38265;DHT22;24062;47.480;8.768;2022-12-08T04:38:24;23.10;49.80
38265;DHT22;24062;47.480;8.768;2022-12-08T04:40:51;23.10;49.70
38265;DHT22;24062;47.480;8.768;2022-12-08T04:43:18;23.10;49.70
38265;DHT22;24062;47.480;8.768;2022-12-08T04:45:46;23.20;49.70
38265;DHT22;24062;47.480;8.768;2022-12-08T04:48:13;23.20;49.60
38265;DHT22;24062;47.480;8.768;2022-12-08T04:50:41;23.20;49.60
38265;DHT22;24062;47.480;8.768;2022-12-08T04:53:08;23.20;49.60
38265;DHT22;24062;47.480;8.768;2022-12-08T04:55:37;23.30;49.60
38265;DHT22;24062;47.480;8.768;2022-12-08T04:58:05;23.30;49.60
38265;DHT22;24062;47.480;8.768;2022-12-08T05:00:32;23.20;49.50
38265;DHT22;24062;47.480;8.768;2022-12-08T05:03:00;23.20;49.50
38265;DHT22;24062;47.480;8.768;2022-12-08T05:05:27;23.30;49.60
38265;DHT22;24062;47.480;8.768;2022-12-08T05:07:54;23.30;49.60
38265;DHT22;24062;47.480;8.768;2022-12-08T05:10:21;23.30;49.50
38265;DHT22;24062;47.480;8.768;2022-12-08T05:12:48;23.30;49.50
38265;DHT22;24062;47.480;8.768;2022-12-08T05:15:15;23.40;49.50
38265;DHT22;24062;47.480;8.768;2022-12-08T05:17:42;23.40;49.50
38265;DHT22;24062;47.480;8.768;2022-12-08T05:20:11;23.40;49.50
38265;DHT22;24062;47.480;8.768;2022-12-08T05:22:38;23.40;49.40
38265;DHT22;24062;47.480;8.768;2022-12-08T05:25:05;23.40;49.40
38265;DHT22;24062;47.480;8.768;2022-12-08T05:27:32;23.40;49.40
38265;DHT22;24062;47.480;8.768;2022-12-08T05:29:59;23.40;49.40
38265;DHT22;24062;47.480;8.768;2022-12-08T05:32:26;23.40;49.40
38265;DHT22;24062;47.480;8.768;2022-12-08T05:34:53;23.40;49.50
38265;DHT22;24062;47.480;8.768;2022-12-08T05:37:21;23.40;49.40
38265;DHT22;24062;47.480;8.768;2022-12-08T05:39:48;23.40;49.40
38265;DHT22;24062;47.480;8.768;2022-12-08T05:42:15;23.40;49.50
38265;DHT22;24062;47.480;8.768;2022-12-08T05:44:42;23.30;49.50
38265;DHT22;24062;47.480;8.768;2022-12-08T05:47:09;23.20;49.40
38265;DHT22;24062;47.480;8.768;2022-12-08T05:49:36;23.20;49.50
38265;DHT22;24062;47.480;8.768;2022-12-08T05:52:03;23.20;49.60
38265;DHT22;24062;47.480;8.768;2022-12-08T05:54:31;23.10;49.60
38265;DHT22;24062;47.480;8.768;2022-12-08T05:56:59;23.10;49.70
38265;DHT22;24062;47.480;8.768;2022-12-08T05:59:26;23.10;49.80
38265;DHT22;24062;47.480;8.768;2022-12-08T06:01:52;23.10;49.80
38265;DHT22;24062;47.480;8.768;2022-12-08T06:04:19;23.20;49.80
38265;DHT22;24062;47.480;8.768;2022-12-08T06:06:47;23.20;49.70
38265;DHT22;24062;47.480;8.768;2022-12-08T06:09:14;23.20;49.70
38265;DHT22;24062;47.480;8.768;2022-12-08T06:11:42;23.30;49.80
38265;DHT22;24062;47.480;8.768;2022-12-08T06:14:11;23.30;49.90
38265;DHT22;24062;47.480;8.768;2022-12-08T06:16:38;23.40;50.10
38265;DHT22;24062;47.480;8.768;2022-12-08T06:19:05;23.40;50.10
38265;DHT22;24062;47.480;8.768;2022-12-08T06:21:32;23.40;49.90
38265;DHT22;24062;47.480;8.768;2022-12-08T06:23:59;23.50;50.00
38265;DHT22;24062;47.480;8.768;2022-12-08T06:26:26;23.50;49.90
38265;DHT22;24062;47.480;8.768;2022-12-08T06:28:54;23.50;50.00
38265;DHT22;24062;47.480;8.768;2022-12-08T06:31:23;23.50;49.90
38265;DHT22;24062;47.480;8.768;2022-12-08T06:33:51;23.50;49.90
38265;DHT22;24062;47.480;8.768;2022-12-08T06:36:19;23.50;49.90
38265;DHT22;24062;47.480;8.768;2022-12-08T06:38:47;23.60;49.80
38265;DHT22;24062;47.480;8.768;2022-12-08T06:41:14;23.60;49.80
38265;DHT22;24062;47.480;8.768;2022-12-08T06:43:42;23.60;49.80
38265;DHT22;24062;47.480;8.768;2022-12-08T06:46:12;23.60;49.70
38265;DHT22;24062;47.480;8.768;2022-12-08T06:48:40;23.60;49.70
38265;DHT22;24062;47.480;8.768;2022-12-08T06:51:08;23.60;49.70
38265;DHT22;24062;47.480;8.768;2022-12-08T06:53:36;23.60;49.70
38265;DHT22;24062;47.480;8.768;2022-12-08T06:56:03;23.60;49.70
38265;DHT22;24062;47.480;8.768;2022-12-08T06:58:30;23.60;49.70
38265;DHT22;24062;47.480;8.768;2022-12-08T07:01:03;23.70;49.70
38265;DHT22;24062;47.480;8.768;2022-12-08T07:03:31;23.70;49.70
38265;DHT22;24062;47.480;8.768;2022-12-08T07:05:58;23.70;49.60
38265;DHT22;24062;47.480;8.768;2022-12-08T07:08:25;23.80;49.70
38265;DHT22;24062;47.480;8.768;2022-12-08T07:10:52;23.70;49.60
38265;DHT22;24062;47.480;8.768;2022-12-08T07:13:19;23.80;49.60
38265;DHT22;24062;47.480;8.768;2022-12-08T07:15:46;23.80;49.60
38265;DHT22;24062;47.480;8.768;2022-12-08T07:18:13;23.80;49.60
38265;DHT22;24062;47.480;8.768;2022-12-08T07:20:41;23.80;49.60
38265;DHT22;24062;47.480;8.768;2022-12-08T07:23:08;23.80;49.60
38265;DHT22;24062;47.480;8.768;2022-12-08T07:25:35;23.80;49.60
38265;DHT22;24062;47.480;8.768;2022-12-08T07:28:07;23.80;49.60
38265;DHT22;24062;47.480;8.768;2022-12-08T07:30:34;23.90;49.60
38265;DHT22;24062;47.480;8.768;2022-12-08T07:33:01;23.90;49.50
38265;DHT22;24062;47.480;8.768;2022-12-08T07:35:29;23.90;49.40
38265;DHT22;24062;47.480;8.768;2022-12-08T07:37:57;24.00;49.40
38265;DHT22;24062;47.480;8.768;2022-12-08T07:40:24;24.00;49.40
38265;DHT22;24062;47.480;8.768;2022-12-08T07:42:51;24.00;49.40
38265;DHT22;24062;47.480;8.768;2022-12-08T07:45:18;24.00;49.30
38265;DHT22;24062;47.480;8.768;2022-12-08T07:47:45;24.00;49.30
38265;DHT22;24062;47.480;8.768;2022-12-08T07:50:12;24.00;49.30
38265;DHT22;24062;47.480;8.768;2022-12-08T07:52:38;24.00;49.30
38265;DHT22;24062;47.480;8.768;2022-12-08T07:55:08;24.10;49.30
38265;DHT22;24062;47.480;8.768;2022-12-08T07:57:35;24.10;49.30
38265;DHT22;24062;47.480;8.768;2022-12-08T08:00:03;24.20;49.20
38265;DHT22;24062;47.480;8.768;2022-12-08T08:02:31;24.20;49.10
38265;DHT22;24062;47.480;8.768;2022-12-08T08:04:57;24.30;49.20
38265;DHT22;24062;47.480;8.768;2022-12-08T08:07:24;24.30;49.10
38265;DHT22;24062;47.480;8.768;2022-12-08T08:09:52;24.30;49.00
38265;DHT22;24062;47.480;8.768;2022-12-08T08:12:20;24.30;49.00
38265;DHT22;24062;47.480;8.768;2022-12-08T08:14:47;24.30;49.00
38265;DHT22;24062;47.480;8.768;2022-12-08T08:17:14;24.30;48.90
38265;DHT22;24062;47.480;8.768;2022-12-08T08:19:41;24.30;49.00
38265;DHT22;24062;47.480;8.768;2022-12-08T08:22:07;24.30;49.00
38265;DHT22;24062;47.480;8.768;2022-12-08T08:24:34;24.30;48.90
38265;DHT22;24062;47.480;8.768;2022-12-08T08:27:01;24.30;48.80
38265;DHT22;24062;47.480;8.768;2022-12-08T08:29:30;24.30;48.70
38265;DHT22;24062;47.480;8.768;2022-12-08T08:31:57;24.30;48.50
38265;DHT22;24062;47.480;8.768;2022-12-08T08:34:23;24.30;48.40
38265;DHT22;24062;47.480;8.768;2022-12-08T08:36:50;24.30;48.50
38265;DHT22;24062;47.480;8.768;2022-12-08T08:39:17;24.30;48.40
38265;DHT22;24062;47.480;8.768;2022-12-08T08:41:44;24.30;48.40
38265;DHT22;24062;47.480;8.768;2022-12-08T08:44:12;24.40;48.50
38265;DHT22;24062;47.480;8.768;2022-12-08T08:46:41;24.40;48.60
38265;DHT22;24062;47.480;8.768;2022-12-08T08:49:08;24.40;48.60
38265;DHT22;24062;47.480;8.768;2022-12-08T08:51:35;24.40;48.60
38265;DHT22;24062;47.480;8.768;2022-12-08T08:54:02;24.50;48.70
38265;DHT22;24062;47.480;8.768;2022-12-08T08:56:29;24.50;48.70
38265;DHT22;24062;47.480;8.768;2022-12-08T08:58:56;24.40;48.70
38265;DHT22;24062;47.480;8.768;2022-12-08T09:01:24;24.40;48.80
38265;DHT22;24062;47.480;8.768;2022-12-08T09:03:55;24.50;48.80
38265;DHT22;24062;47.480;8.768;2022-12-08T09:06:23;24.40;48.80
38265;DHT22;24062;47.480;8.768;2022-12-08T09:08:50;24.50;48.90
38265;DHT22;24062;47.480;8.768;2022-12-08T09:11:17;24.50;48.90
38265;DHT22;24062;47.480;8.768;2022-12-08T09:13:46;24.50;48.90
38265;DHT22;24062;47.480;8.768;2022-12-08T09:16:14;24.50;49.00
38265;DHT22;24062;47.480;8.768;2022-12-08T09:18:41;24.50;48.90
38265;DHT22;24062;47.480;8.768;2022-12-08T09:21:11;24.50;48.90
38265;DHT22;24062;47.480;8.768;2022-12-08T09:23:41;24.50;48.90
38265;DHT22;24062;47.480;8.768;2022-12-08T09:26:08;24.50;48.90
38265;DHT22;24062;47.480;8.768;2022-12-08T09:28:36;24.50;48.80
38265;DHT22;24062;47.480;8.768;2022-12-08T09:31:03;24.50;48.90
38265;DHT22;24062;47.480;8.768;2022-12-08T09:33:31;24.60;49.00
38265;DHT22;24062;47.480;8.768;2022-12-08T09:36:01;24.60;49.00
38265;DHT22;24062;47.480;8.768;2022-12-08T09:38:30;24.70;49.00
38265;DHT22;24062;47.480;8.768;2022-12-08T09:40:57;24.80;49.00
38265;DHT22;24062;47.480;8.768;2022-12-08T09:43:45;24.80;49.00
38265;DHT22;24062;47.480;8.768;2022-12-08T09:46:17;24.80;48.90
38265;DHT22;24062;47.480;8.768;2022-12-08T09:48:50;24.90;48.90
38265;DHT22;24062;47.480;8.768;2022-12-08T09:51:20;24.90;48.90
38265;DHT22;24062;47.480;8.768;2022-12-08T09:53:51;24.90;48.90
38265;DHT22;24062;47.480;8.768;2022-12-08T09:56:22;24.90;48.90
38265;DHT22;24062;47.480;8.768;2022-12-08T09:58:51;24.90;48.90
38265;DHT22;24062;47.480;8.768;2022-12-08T10:01:20;25.00;48.90
38265;DHT22;24062;47.480;8.768;2022-12-08T10:03:48;25.10;48.90
38265;DHT22;24062;47.480;8.768;2022-12-08T10:06:20;25.10;48.80
38265;DHT22;24062;47.480;8.768;2022-12-08T10:08:56;25.30;48.80
38265;DHT22;24062;47.480;8.768;2022-12-08T10:11:29;25.40;48.60
38265;DHT22;24062;47.480;8.768;2022-12-08T10:14:02;25.40;48.50
38265;DHT22;24062;47.480;8.768;2022-12-08T10:16:36;25.40;48.40
38265;DHT22;24062;47.480;8.768;2022-12-08T10:19:12;25.40;48.50
38265;DHT22;24062;47.480;8.768;2022-12-08T10:21:39;25.40;48.40
38265;DHT22;24062;47.480;8.768;2022-12-08T10:24:15;25.30;48.40
38265;DHT22;24062;47.480;8.768;2022-12-08T10:26:44;25.30;48.40
38265;DHT22;24062;47.480;8.768;2022-12-08T10:29:13;25.30;48.40
38265;DHT22;24062;47.480;8.768;2022-12-08T10:31:40;25.40;48.50
38265;DHT22;24062;47.480;8.768;2022-12-08T10:34:15;25.30;48.40
38265;DHT22;24062;47.480;8.768;2022-12-08T10:36:50;25.40;48.30
38265;DHT22;24062;47.480;8.768;2022-12-08T10:39:40;25.50;48.40
38265;DHT22;24062;47.480;8.768;2022-12-08T10:42:16;25.50;48.40
38265;DHT22;24062;47.480;8.768;2022-12-08T10:44:59;25.50;48.40
38265;DHT22;24062;47.480;8.768;2022-12-08T10:47:29;25.40;48.30
38265;DHT22;24062;47.480;8.768;2022-12-08T10:50:15;25.40;48.30
38265;DHT22;24062;47.480;8.768;2022-12-08T10:52:44;25.40;48.30
38265;DHT22;24062;47.480;8.768;2022-12-08T10:55:18;25.30;48.30
38265;DHT22;24062;47.480;8.768;2022-12-08T10:57:45;25.30;48.30
38265;DHT22;24062;47.480;8.768;2022-12-08T11:00:15;25.30;48.30
38265;DHT22;24062;47.480;8.768;2022-12-08T11:02:55;25.40;48.40
38265;DHT22;24062;47.480;8.768;2022-12-08T11:05:25;25.40;48.50
38265;DHT22;24062;47.480;8.768;2022-12-08T11:07:53;25.40;48.50
38265;DHT22;24062;47.480;8.768;2022-12-08T11:10:31;25.50;48.60
38265;DHT22;24062;47.480;8.768;2022-12-08T11:13:00;25.50;48.70
38265;DHT22;24062;47.480;8.768;2022-12-08T11:15:33;25.40;48.70
38265;DHT22;24062;47.480;8.768;2022-12-08T11:18:06;25.40;48.70
38265;DHT22;24062;47.480;8.768;2022-12-08T11:20:37;25.40;48.90
38265;DHT22;24062;47.480;8.768;2022-12-08T11:23:18;25.30;48.90
38265;DHT22;24062;47.480;8.768;2022-12-08T11:25:47;25.40;49.00
38265;DHT22;24062;47.480;8.768;2022-12-08T11:28:22;25.40;49.00
38265;DHT22;24062;47.480;8.768;2022-12-08T11:30:55;25.40;48.90
38265;DHT22;24062;47.480;8.768;2022-12-08T11:33:25;25.40;48.90
38265;DHT22;24062;47.480;8.768;2022-12-08T11:35:57;25.60;49.40
38265;DHT22;24062;47.480;8.768;2022-12-08T11:38:27;25.50;48.60
38265;DHT22;24062;47.480;8.768;2022-12-08T11:40:59;25.50;48.60
38265;DHT22;24062;47.480;8.768;2022-12-08T11:43:35;25.50;48.60
38265;DHT22;24062;47.480;8.768;2022-12-08T11:46:10;25.50;48.60
38265;DHT22;24062;47.480;8.768;2022-12-08T11:48:44;25.60;48.50
38265;DHT22;24062;47.480;8.768;2022-12-08T11:51:14;25.70;48.40
38265;DHT22;24062;47.480;8.768;2022-12-08T11:53:47;25.80;48.40
38265;DHT22;24062;47.480;8.768;2022-12-08T11:56:22;26.40;47.70
38265;DHT22;24062;47.480;8.768;2022-12-08T11:58:54;26.60;47.30
38265;DHT22;24062;47.480;8.768;2022-12-08T12:01:24;26.60;47.60
38265;DHT22;24062;47.480;8.768;2022-12-08T12:03:57;26.40;47.20
38265;DHT22;24062;47.480;8.768;2022-12-08T12:09:18;26.00;47.60
38265;DHT22;24062;47.480;8.768;2022-12-08T12:12:01;25.80;47.70
38265;DHT22;24062;47.480;8.768;2022-12-08T12:17:41;25.70;47.90
38265;DHT22;24062;47.480;8.768;2022-12-08T12:20:14;25.70;48.00
38265;DHT22;24062;47.480;8.768;2022-12-08T12:22:45;25.70;48.10
38265;DHT22;24062;47.480;8.768;2022-12-08T12:25:19;25.60;48.00
38265;DHT22;24062;47.480;8.768;2022-12-08T12:27:49;25.70;48.10
38265;DHT22;24062;47.480;8.768;2022-12-08T12:30:23;25.80;48.20
38265;DHT22;24062;47.480;8.768;2022-12-08T12:32:53;25.80;48.20
38265;DHT22;24062;47.480;8.768;2022-12-08T12:35:28;25.70;48.10
38265;DHT22;24062;47.480;8.768;2022-12-08T12:38:00;25.70;48.20
38265;DHT22;24062;47.480;8.768;2022-12-08T12:40:34;25.80;48.80
38265;DHT22;24062;47.480;8.768;2022-12-08T12:43:26;25.70;48.20
38265;DHT22;24062;47.480;8.768;2022-12-08T12:51:59;25.80;48.20
38265;DHT22;24062;47.480;8.768;2022-12-08T12:54:26;26.10;48.30
38265;DHT22;24062;47.480;8.768;2022-12-08T12:56:54;26.40;47.90
38265;DHT22;24062;47.480;8.768;2022-12-08T13:00:04;26.40;47.60
38265;DHT22;24062;47.480;8.768;2022-12-08T13:02:35;26.20;47.60
38265;DHT22;24062;47.480;8.768;2022-12-08T13:05:09;26.10;47.80
38265;DHT22;24062;47.480;8.768;2022-12-08T13:07:42;26.00;47.80
38265;DHT22;24062;47.480;8.768;2022-12-08T13:10:17;26.10;47.90
38265;DHT22;24062;47.480;8.768;2022-12-08T13:12:45;26.10;47.80
38265;DHT22;24062;47.480;8.768;2022-12-08T13:15:33;26.10;47.80
38265;DHT22;24062;47.480;8.768;2022-12-08T13:18:01;26.10;47.80
38265;DHT22;24062;47.480;8.768;2022-12-08T13:20:28;26.10;47.80
38265;DHT22;24062;47.480;8.768;2022-12-08T13:26:08;25.90;47.80
38265;DHT22;24062;47.480;8.768;2022-12-08T13:29:04;25.90;47.90
38265;DHT22;24062;47.480;8.768;2022-12-08T13:31:39;25.90;47.90
38265;DHT22;24062;47.480;8.768;2022-12-08T13:34:11;25.80;48.00
38265;DHT22;24062;47.480;8.768;2022-12-08T13:36:42;25.70;48.00
38265;DHT22;24062;47.480;8.768;2022-12-08T13:39:19;25.70;48.10
38265;DHT22;24062;47.480;8.768;2022-12-08T13:41:53;25.80;48.20
38265;DHT22;24062;47.480;8.768;2022-12-08T13:44:26;25.80;48.20
38265;DHT22;24062;47.480;8.768;2022-12-08T13:46:57;25.80;48.10
38265;DHT22;24062;47.480;8.768;2022-12-08T13:49:28;25.80;48.10
38265;DHT22;24062;47.480;8.768;2022-12-08T13:51:59;25.70;48.10
38265;DHT22;24062;47.480;8.768;2022-12-08T13:54:30;25.70;48.20
38265;DHT22;24062;47.480;8.768;2022-12-08T13:56:59;25.70;48.20
38265;DHT22;24062;47.480;8.768;2022-12-08T13:59:28;25.70;48.10
38265;DHT22;24062;47.480;8.768;2022-12-08T14:02:00;25.70;48.10
38265;DHT22;24062;47.480;8.768;2022-12-08T14:04:29;25.70;48.20
38265;DHT22;24062;47.480;8.768;2022-12-08T14:06:58;25.70;48.30
38265;DHT22;24062;47.480;8.768;2022-12-08T14:09:31;25.70;48.40
38265;DHT22;24062;47.480;8.768;2022-12-08T14:12:02;25.70;48.50
38265;DHT22;24062;47.480;8.768;2022-12-08T14:14:31;25.80;48.60
38265;DHT22;24062;47.480;8.768;2022-12-08T14:17:02;25.90;48.80
38265;DHT22;24062;47.480;8.768;2022-12-08T14:19:32;26.00;48.70
38265;DHT22;24062;47.480;8.768;2022-12-08T14:22:00;26.00;48.70
38265;DHT22;24062;47.480;8.768;2022-12-08T14:24:29;26.00;48.60
38265;DHT22;24062;47.480;8.768;2022-12-08T14:26:59;25.90;48.50
38265;DHT22;24062;47.480;8.768;2022-12-08T14:29:38;25.90;48.50
38265;DHT22;24062;47.480;8.768;2022-12-08T14:32:20;25.80;48.40
38265;DHT22;24062;47.480;8.768;2022-12-08T14:34:51;25.80;48.40
38265;DHT22;24062;47.480;8.768;2022-12-08T14:37:20;25.80;48.40
38265;DHT22;24062;47.480;8.768;2022-12-08T14:39:48;25.80;48.40
38265;DHT22;24062;47.480;8.768;2022-12-08T14:42:21;25.80;48.40
38265;DHT22;24062;47.480;8.768;2022-12-08T14:44:58;25.70;48.30
38265;DHT22;24062;47.480;8.768;2022-12-08T14:47:30;25.70;48.50
38265;DHT22;24062;47.480;8.768;2022-12-08T14:49:57;25.70;48.60
38265;DHT22;24062;47.480;8.768;2022-12-08T14:52:24;25.60;48.60
38265;DHT22;24062;47.480;8.768;2022-12-08T14:54:52;25.60;48.80
38265;DHT22;24062;47.480;8.768;2022-12-08T14:57:19;25.50;48.80
38265;DHT22;24062;47.480;8.768;2022-12-08T14:59:47;25.50;48.80
38265;DHT22;24062;47.480;8.768;2022-12-08T15:02:24;25.50;48.90
38265;DHT22;24062;47.480;8.768;2022-12-08T15:04:57;25.40;48.90
38265;DHT22;24062;47.480;8.768;2022-12-08T15:07:27;25.40;49.00
38265;DHT22;24062;47.480;8.768;2022-12-08T15:10:20;25.40;49.00
38265;DHT22;24062;47.480;8.768;2022-12-08T15:13:05;25.40;49.00
38265;DHT22;24062;47.480;8.768;2022-12-08T15:15:45;25.40;49.00
38265;DHT22;24062;47.480;8.768;2022-12-08T15:18:16;25.40;49.00
38265;DHT22;24062;47.480;8.768;2022-12-08T15:20:46;25.30;49.00
38265;DHT22;24062;47.480;8.768;2022-12-08T15:23:20;25.30;49.00
38265;DHT22;24062;47.480;8.768;2022-12-08T15:25:48;25.20;49.00
38265;DHT22;24062;47.480;8.768;2022-12-08T15:28:16;25.20;49.00
38265;DHT22;24062;47.480;8.768;2022-12-08T15:30:44;25.20;49.00
38265;DHT22;24062;47.480;8.768;2022-12-08T15:33:11;25.20;49.10
38265;DHT22;24062;47.480;8.768;2022-12-08T15:35:38;25.30;49.00
38265;DHT22;24062;47.480;8.768;2022-12-08T15:38:08;25.20;49.00
38265;DHT22;24062;47.480;8.768;2022-12-08T15:40:41;25.20;49.00
38265;DHT22;24062;47.480;8.768;2022-12-08T15:43:09;25.20;49.10
38265;DHT22;24062;47.480;8.768;2022-12-08T15:45:36;25.20;49.10
38265;DHT22;24062;47.480;8.768;2022-12-08T15:48:04;25.10;49.00
38265;DHT22;24062;47.480;8.768;2022-12-08T15:50:31;25.10;49.10
38265;DHT22;24062;47.480;8.768;2022-12-08T15:52:58;25.10;49.10
38265;DHT22;24062;47.480;8.768;2022-12-08T15:55:26;25.10;49.10
38265;DHT22;24062;47.480;8.768;2022-12-08T15:57:53;25.10;49.20
38265;DHT22;24062;47.480;8.768;2022-12-08T16:00:26;25.10;49.10
38265;DHT22;24062;47.480;8.768;2022-12-08T16:02:53;25.10;49.10
38265;DHT22;24062;47.480;8.768;2022-12-08T16:05:21;25.10;49.10
38265;DHT22;24062;47.480;8.768;2022-12-08T16:07:48;25.20;49.20